Terminal Aerodrome Forecast
Issued by NWS

Home | Current Version | Previous Version | Text Only | Print | Product List | Glossary On
Versions: 1 2 3 4 5 6 7 8 9 10 11 12 13 14 15 16 17 18 19 20 21 22 23 24 25 26 27 28 29 30 31 32 33 34 35 36 37 38
000
FTAK31 PANC 290531
TAFADL
TAF
PADL 290531Z 2906/3006 27006KT P6SM -RA SCT025 BKN045
      TEMPO 2906/2908 32010KT 4SM -RA BR BKN015
     FM290900 35005KT 3SM -RA BR BKN007
     FM291500 35004KT 5SM -SHRA BR BKN025
     FM291900 33010G17KT P6SM BKN050
      AMD LTD TO CLD VIS AND WIND 2907/2916=

USA.gov is the U.S. government's official web portal to all federal, state and local government web resources and services.